createdAt,value
2022-12-06T00:00:45.914Z,137.52
2022-12-06T00:02:47.473Z,126.35
2022-12-06T00:04:48.946Z,141.30
2022-12-06T00:06:54.773Z,136.75
2022-12-06T00:08:57.952Z,142.00
2022-12-06T00:11:22.674Z,122.60
2022-12-06T00:13:24.167Z,125.20
2022-12-06T00:15:25.799Z,125.55
2022-12-06T00:17:27.296Z,121.68
2022-12-06T00:19:28.864Z,125.60
2022-12-06T00:21:33.022Z,137.85
2022-12-06T00:23:39.045Z,126.53
2022-12-06T00:25:40.483Z,156.63
2022-12-06T00:27:41.917Z,142.43
2022-12-06T00:29:43.386Z,140.73
2022-12-06T00:31:45.045Z,142.68
2022-12-06T00:33:46.951Z,146.90
2022-12-06T00:35:58.657Z,143.27
2022-12-06T00:38:00.074Z,139.23
2022-12-06T00:40:01.816Z,141.98
2022-12-06T00:42:03.664Z,160.18
2022-12-06T00:44:05.866Z,175.80
2022-12-06T00:46:10.591Z,169.98
2022-12-06T00:48:12.066Z,155.63
2022-12-06T00:50:13.588Z,162.93
2022-12-06T00:52:15.068Z,166.10
2022-12-06T00:54:16.585Z,160.15
2022-12-06T00:56:18.991Z,157.80
2022-12-06T00:58:20.506Z,149.32
2022-12-06T01:00:22.092Z,184.00
2022-12-06T01:02:23.565Z,224.55
2022-12-06T01:04:24.987Z,197.63
2022-12-06T01:06:29.888Z,162.88
2022-12-06T01:08:32.017Z,159.65
2022-12-06T01:10:33.453Z,155.10
2022-12-06T01:12:34.927Z,161.07
2022-12-06T01:14:36.455Z,153.07
2022-12-06T01:16:38.603Z,158.65
2022-12-06T01:18:41.471Z,162.02
2022-12-06T01:20:42.942Z,154.88
2022-12-06T01:22:44.498Z,152.68
2022-12-06T01:24:47.335Z,143.65
2022-12-06T01:26:48.780Z,154.88
2022-12-06T01:28:50.518Z,152.63
2022-12-06T01:30:52.093Z,180.25
2022-12-06T01:32:53.598Z,183.18
2022-12-06T01:34:55.178Z,171.88
2022-12-06T01:36:56.633Z,161.27
2022-12-06T01:38:58.925Z,166.57
2022-12-06T01:41:00.574Z,150.75
2022-12-06T01:43:02.058Z,185.82
2022-12-06T01:45:04.258Z,209.43
2022-12-06T01:47:10.991Z,188.05
2022-12-06T01:49:12.397Z,158.43
2022-12-06T01:51:15.757Z,221.95
2022-12-06T01:53:24.058Z,155.15
2022-12-06T01:57:30.743Z,155.07
2022-12-06T01:59:32.357Z,154.77
2022-12-06T02:01:35.189Z,163.57
2022-12-06T02:03:37.434Z,174.77
2022-12-06T02:05:40.944Z,173.40
2022-12-06T02:07:43.595Z,152.57
2022-12-06T02:09:46.182Z,189.35
2022-12-06T02:11:47.789Z,159.23
2022-12-06T02:13:49.764Z,165.82
2022-12-06T02:16:00.367Z,171.70
2022-12-06T02:18:19.803Z,164.70
2022-12-06T02:20:27.309Z,167.07
2022-12-06T02:22:56.511Z,171.05
2022-12-06T02:25:14.288Z,163.38
2022-12-06T02:27:44.305Z,175.35
2022-12-06T02:29:58.818Z,165.20
2022-12-06T02:32:08.548Z,170.10
2022-12-06T02:34:18.855Z,213.70
2022-12-06T02:36:38.687Z,197.57
2022-12-06T02:38:48.300Z,192.90
2022-12-06T02:41:00.594Z,219.23
2022-12-06T02:43:11.975Z,219.20
2022-12-06T02:45:18.724Z,203.73
2022-12-06T02:47:24.482Z,193.73
2022-12-06T02:49:27.910Z,211.25
2022-12-06T02:51:32.188Z,192.95
2022-12-06T02:53:38.373Z,184.20
2022-12-06T02:55:40.672Z,208.68
2022-12-06T02:57:45.028Z,174.38
2022-12-06T02:59:54.146Z,196.70
2022-12-06T03:01:59.663Z,201.50
2022-12-06T03:04:14.678Z,208.20
2022-12-06T03:06:43.897Z,254.27
2022-12-06T03:09:23.400Z,211.27
2022-12-06T03:11:32.130Z,208.95
2022-12-06T03:13:59.639Z,219.65
2022-12-06T03:16:13.741Z,234.43
2022-12-06T03:18:31.897Z,217.30
2022-12-06T03:20:43.093Z,197.38
2022-12-06T03:22:50.565Z,176.13
2022-12-06T03:24:52.838Z,196.57
2022-12-06T03:26:56.682Z,209.32
2022-12-06T03:29:01.264Z,192.65
2022-12-06T03:31:09.039Z,197.10
2022-12-06T03:33:13.930Z,182.05
2022-12-06T03:35:20.382Z,191.32
2022-12-06T03:37:24.975Z,208.48
2022-12-06T03:39:38.585Z,215.40
2022-12-06T03:41:48.949Z,216.77
2022-12-06T03:43:50.708Z,211.13
2022-12-06T03:46:04.328Z,202.15
2022-12-06T03:48:18.690Z,205.10
2022-12-06T03:50:31.029Z,212.18
2022-12-06T03:52:33.554Z,220.95
2022-12-06T03:54:35.176Z,222.98
2022-12-06T03:56:38.674Z,240.55
2022-12-06T03:58:40.143Z,237.60
2022-12-06T04:00:41.650Z,313.35
2022-12-06T04:02:43.164Z,222.68
2022-12-06T04:04:44.590Z,275.60
2022-12-06T04:06:46.123Z,264.38
2022-12-06T04:08:47.561Z,253.85
2022-12-06T04:10:49.015Z,264.73
2022-12-06T04:13:02.648Z,251.77
2022-12-06T04:15:05.422Z,428.83
2022-12-06T04:17:26.613Z,256.90
2022-12-06T04:19:28.162Z,247.90
2022-12-06T04:21:32.422Z,194.05
2022-12-06T04:23:36.974Z,200.70
2022-12-06T04:25:38.521Z,199.63
2022-12-06T04:27:58.764Z,212.52
2022-12-06T04:30:18.803Z,230.35
2022-12-06T04:32:38.972Z,231.40
2022-12-06T04:34:58.918Z,233.93
2022-12-06T04:37:19.134Z,237.55
2022-12-06T04:39:21.114Z,239.27
2022-12-06T04:41:42.027Z,239.13
2022-12-06T04:43:43.487Z,212.88
2022-12-06T04:45:45.019Z,217.88
2022-12-06T04:47:46.894Z,237.60
2022-12-06T04:49:49.805Z,249.75
2022-12-06T04:51:52.221Z,249.70
2022-12-06T04:53:53.725Z,272.63
2022-12-06T04:55:55.336Z,434.13
2022-12-06T04:57:56.780Z,410.52
2022-12-06T04:59:58.618Z,405.63
2022-12-06T05:02:00.409Z,317.27
2022-12-06T05:04:02.018Z,360.67
2022-12-06T05:06:04.097Z,356.48
2022-12-06T05:08:05.920Z,336.45
2022-12-06T05:10:08.153Z,283.98
2022-12-06T05:12:09.747Z,287.77
2022-12-06T05:14:11.292Z,275.48
2022-12-06T05:16:12.953Z,270.90
2022-12-06T05:18:14.398Z,252.88
2022-12-06T05:20:15.989Z,217.85
2022-12-06T05:22:17.434Z,234.73
2022-12-06T05:24:18.887Z,215.68
2022-12-06T05:26:21.847Z,210.38
2022-12-06T05:28:23.550Z,204.15
2022-12-06T05:30:24.973Z,208.25
2022-12-06T05:32:26.611Z,212.52
2022-12-06T05:34:28.149Z,197.05
2022-12-06T05:36:29.629Z,207.52
2022-12-06T05:38:33.210Z,208.43
2022-12-06T05:40:34.749Z,217.82
2022-12-06T05:42:36.262Z,210.75
2022-12-06T05:44:37.711Z,207.00
2022-12-06T05:46:39.221Z,228.75
2022-12-06T05:48:40.851Z,229.95
2022-12-06T05:50:42.293Z,226.57
2022-12-06T05:52:43.805Z,209.68
2022-12-06T05:54:45.259Z,215.57
2022-12-06T05:56:48.694Z,247.50
2022-12-06T05:58:50.176Z,251.45
2022-12-06T06:00:51.651Z,254.90
2022-12-06T06:02:53.254Z,210.18
2022-12-06T06:04:54.776Z,235.95
2022-12-06T06:06:56.212Z,257.05
2022-12-06T06:08:57.899Z,235.50
2022-12-06T06:11:00.120Z,223.45
2022-12-06T06:13:01.603Z,222.18
2022-12-06T06:15:07.161Z,208.20
2022-12-06T06:17:08.769Z,200.52
2022-12-06T06:19:10.319Z,200.73
2022-12-06T06:21:11.939Z,206.48
2022-12-06T06:23:13.384Z,178.32
2022-12-06T06:25:15.000Z,182.00
2022-12-06T06:27:16.472Z,180.52
2022-12-06T06:29:17.994Z,158.75
2022-12-06T06:31:19.574Z,183.38
2022-12-06T06:33:21.264Z,175.07
2022-12-06T06:35:22.780Z,195.25
2022-12-06T06:37:24.519Z,188.95
2022-12-06T06:39:26.033Z,185.60
2022-12-06T06:41:27.743Z,191.98
2022-12-06T06:43:30.451Z,181.25
2022-12-06T06:45:31.958Z,183.48
2022-12-06T06:47:33.680Z,204.75
2022-12-06T06:49:35.151Z,204.13
2022-12-06T06:51:36.609Z,222.73
2022-12-06T06:53:39.124Z,163.30
2022-12-06T06:55:40.582Z,220.35
2022-12-06T06:57:42.147Z,209.48
2022-12-06T06:59:43.862Z,206.10
2022-12-06T07:01:45.514Z,309.40
2022-12-06T07:03:47.841Z,337.73
2022-12-06T07:05:53.248Z,205.68
2022-12-06T07:07:54.920Z,237.00
2022-12-06T07:09:56.478Z,286.52
2022-12-06T07:11:57.903Z,266.25
2022-12-06T07:13:59.496Z,243.30
2022-12-06T07:16:04.063Z,253.13
2022-12-06T07:18:05.704Z,243.27
2022-12-06T07:20:07.811Z,242.20
2022-12-06T07:22:10.204Z,186.98
2022-12-06T07:24:11.745Z,210.05
2022-12-06T07:26:21.952Z,172.90
2022-12-06T07:28:23.406Z,305.85
2022-12-06T07:30:27.613Z,242.38
2022-12-06T07:32:29.188Z,230.85
2022-12-06T07:34:31.155Z,224.95
2022-12-06T07:36:33.251Z,173.60
2022-12-06T07:38:34.865Z,184.18
2022-12-06T07:41:02.763Z,190.82
2022-12-06T07:43:16.476Z,216.50
2022-12-06T07:45:17.968Z,187.93
2022-12-06T07:47:19.397Z,242.02
2022-12-06T07:49:20.962Z,239.50
2022-12-06T07:51:22.392Z,193.07
2022-12-06T07:53:24.424Z,195.23
2022-12-06T07:55:25.875Z,195.02
2022-12-06T07:57:27.829Z,183.27
2022-12-06T07:59:29.417Z,172.85
2022-12-06T08:01:31.325Z,188.80
2022-12-06T08:03:32.913Z,214.48
2022-12-06T08:05:34.482Z,235.10
2022-12-06T08:07:36.227Z,205.45
2022-12-06T08:09:37.878Z,469.40
2022-12-06T08:11:39.550Z,298.25
2022-12-06T08:13:41.053Z,252.90
2022-12-06T08:15:42.600Z,223.82
2022-12-06T08:17:44.169Z,256.10
2022-12-06T08:19:46.945Z,245.95
2022-12-06T08:21:48.672Z,183.73
2022-12-06T08:23:50.129Z,172.85
2022-12-06T08:25:59.997Z,276.42
2022-12-06T08:28:01.604Z,202.98
2022-12-06T08:30:15.767Z,250.10
2022-12-06T08:32:35.251Z,254.98
2022-12-06T08:34:36.768Z,284.02
2022-12-06T08:36:40.213Z,271.45
2022-12-06T08:38:42.150Z,237.82
2022-12-06T08:40:44.125Z,219.45
2022-12-06T08:42:46.067Z,208.77
2022-12-06T08:44:51.704Z,246.65
2022-12-06T08:47:00.610Z,225.13
2022-12-06T08:49:02.883Z,197.65
2022-12-06T08:51:04.407Z,158.93
2022-12-06T08:53:05.867Z,152.07
2022-12-06T08:55:07.853Z,169.07
2022-12-06T08:57:09.323Z,178.52
2022-12-06T08:59:11.226Z,214.20
2022-12-06T09:01:15.127Z,233.23
2022-12-06T09:03:16.675Z,211.45
2022-12-06T09:05:18.233Z,138.25
2022-12-06T09:07:19.937Z,152.90
2022-12-06T09:09:25.891Z,151.57
2022-12-06T09:11:27.799Z,139.80
2022-12-06T09:13:29.361Z,126.90
2022-12-06T09:15:30.995Z,135.88
2022-12-06T09:17:32.453Z,164.90
2022-12-06T09:19:38.596Z,172.35
2022-12-06T09:21:43.022Z,170.43
2022-12-06T09:23:44.694Z,202.80
2022-12-06T09:25:46.141Z,187.35
2022-12-06T09:27:47.974Z,112.07
2022-12-06T09:29:53.616Z,114.65
2022-12-06T09:32:10.513Z,139.18
2022-12-06T09:34:21.228Z,147.48
2022-12-06T09:36:36.583Z,120.38
2022-12-06T09:38:49.117Z,150.20
2022-12-06T09:41:09.101Z,119.97
2022-12-06T09:43:38.640Z,72.45
2022-12-06T09:46:01.573Z,66.35
2022-12-06T09:48:09.017Z,75.97
2022-12-06T09:50:29.095Z,79.05
2022-12-06T09:52:52.252Z,76.15
2022-12-06T09:55:06.284Z,76.07
2022-12-06T09:57:18.425Z,89.97
2022-12-06T09:59:50.253Z,88.95
2022-12-06T10:02:33.394Z,86.53
2022-12-06T10:04:54.268Z,71.40
2022-12-06T10:07:24.480Z,75.60
2022-12-06T10:09:45.860Z,563.60
2022-12-06T10:11:56.144Z,116.57
2022-12-06T10:14:38.964Z,81.35
2022-12-06T10:17:04.179Z,64.47
2022-12-06T10:19:39.530Z,62.55
2022-12-06T10:22:07.340Z,72.00
2022-12-06T10:24:30.358Z,78.55
2022-12-06T10:27:04.034Z,70.32
2022-12-06T10:29:17.869Z,63.85
2022-12-06T10:31:27.052Z,67.25
2022-12-06T10:34:01.152Z,68.97
2022-12-06T10:36:12.627Z,80.68
2022-12-06T10:38:44.578Z,55.78
2022-12-06T10:40:54.803Z,61.40
2022-12-06T10:43:22.069Z,48.42
2022-12-06T10:45:51.235Z,57.25
2022-12-06T10:47:57.386Z,46.22
2022-12-06T10:50:25.642Z,53.38
2022-12-06T10:52:35.109Z,51.65
2022-12-06T10:54:43.273Z,73.80
2022-12-06T10:56:46.541Z,51.25
2022-12-06T10:58:57.889Z,55.40
2022-12-06T11:01:08.690Z,47.47
2022-12-06T11:03:44.278Z,45.42
2022-12-06T11:05:54.673Z,46.92
2022-12-06T11:08:03.609Z,48.58
2022-12-06T11:10:20.360Z,94.40
2022-12-06T11:12:38.890Z,136.98
2022-12-06T11:14:46.589Z,58.78
2022-12-06T11:16:56.968Z,71.50
2022-12-06T11:19:14.538Z,60.78
2022-12-06T11:21:37.189Z,72.13
2022-12-06T11:23:47.910Z,53.72
2022-12-06T11:26:04.297Z,55.67
2022-12-06T11:28:12.401Z,56.38
2022-12-06T11:30:20.764Z,57.90
2022-12-06T11:32:22.445Z,61.72
2022-12-06T11:34:33.037Z,48.80
2022-12-06T11:36:35.304Z,57.95
2022-12-06T11:38:40.759Z,60.97
2022-12-06T11:40:46.715Z,52.63
2022-12-06T11:42:48.282Z,65.20
2022-12-06T11:45:04.032Z,49.10
2022-12-06T11:47:15.917Z,66.97
2022-12-06T11:49:30.619Z,53.83
2022-12-06T11:51:32.166Z,49.92
2022-12-06T11:53:55.007Z,46.17
2022-12-06T11:56:00.801Z,43.55
2022-12-06T11:58:07.683Z,49.58
2022-12-06T12:00:24.960Z,49.72
2022-12-06T12:02:32.725Z,54.10
2022-12-06T12:04:42.782Z,65.32
2022-12-06T12:06:46.424Z,224.38
2022-12-06T12:08:57.309Z,91.60
2022-12-06T12:11:01.430Z,65.82
2022-12-06T12:13:37.343Z,51.83
2022-12-06T12:15:47.788Z,57.33
2022-12-06T12:17:53.184Z,73.47
2022-12-06T12:19:59.584Z,67.53
2022-12-06T12:22:24.182Z,63.10
2022-12-06T12:27:35.413Z,68.05
2022-12-06T12:29:36.920Z,76.25
2022-12-06T12:31:53.563Z,80.88
2022-12-06T12:34:18.086Z,70.45
2022-12-06T12:36:26.988Z,78.72
2022-12-06T12:38:43.403Z,79.35
2022-12-06T12:40:51.465Z,92.20
2022-12-06T12:43:04.704Z,155.43
2022-12-06T12:45:17.176Z,135.57
2022-12-06T12:47:20.386Z,123.10
2022-12-06T12:49:35.280Z,111.20
2022-12-06T12:51:43.648Z,98.75
2022-12-06T12:53:55.177Z,93.70
2022-12-06T12:56:14.542Z,98.97
2022-12-06T12:58:16.041Z,84.13
2022-12-06T13:00:21.066Z,72.72
2022-12-06T13:02:30.977Z,67.68
2022-12-06T13:04:43.272Z,63.08
2022-12-06T13:06:51.037Z,69.72
2022-12-06T13:08:53.846Z,81.97
2022-12-06T13:10:59.267Z,107.85
2022-12-06T13:13:12.317Z,106.72
2022-12-06T13:15:23.790Z,155.18
2022-12-06T13:17:27.323Z,269.00
2022-12-06T13:19:34.142Z,289.10
2022-12-06T13:21:41.106Z,147.05
2022-12-06T13:23:43.995Z,136.98
2022-12-06T13:25:53.504Z,149.65
2022-12-06T13:28:05.154Z,163.90
2022-12-06T13:30:15.811Z,149.10
2022-12-06T13:32:47.481Z,128.27
2022-12-06T13:34:53.274Z,110.18
2022-12-06T13:36:54.894Z,143.02
2022-12-06T13:38:56.464Z,151.57
2022-12-06T13:41:00.138Z,168.15
2022-12-06T13:43:26.201Z,150.30
2022-12-06T13:45:39.054Z,158.27
2022-12-06T13:47:49.608Z,146.88
2022-12-06T13:49:51.223Z,159.10
2022-12-06T13:51:52.743Z,150.52
2022-12-06T13:54:06.360Z,173.18
2022-12-06T13:56:28.245Z,161.40
2022-12-06T13:58:29.647Z,182.90
2022-12-06T14:00:31.036Z,240.38
2022-12-06T14:02:46.422Z,250.27
2022-12-06T14:04:48.223Z,226.52
2022-12-06T14:06:54.614Z,226.57
2022-12-06T14:09:00.966Z,222.02
2022-12-06T14:11:21.322Z,227.20
2022-12-06T14:13:22.782Z,219.50
2022-12-06T14:15:24.281Z,237.35
2022-12-06T14:18:00.685Z,342.35
2022-12-06T14:19:54.172Z,427.13
2022-12-06T14:22:02.572Z,440.90
2022-12-06T14:24:04.619Z,370.63
2022-12-06T14:26:21.786Z,352.27
2022-12-06T14:28:23.237Z,377.40
2022-12-06T14:30:26.594Z,353.42
2022-12-06T14:32:37.648Z,357.52
2022-12-06T14:34:39.450Z,320.83
2022-12-06T14:36:41.119Z,384.90
2022-12-06T14:38:42.848Z,340.65
2022-12-06T14:41:03.714Z,398.90
2022-12-06T14:43:16.362Z,419.35
2022-12-06T14:45:18.302Z,377.90
2022-12-06T14:47:22.357Z,320.98
2022-12-06T14:49:45.304Z,320.20
2022-12-06T14:51:46.798Z,331.65
2022-12-06T14:53:48.348Z,371.20
2022-12-06T14:56:22.032Z,342.20
2022-12-06T14:58:29.172Z,358.95
2022-12-06T15:00:37.471Z,372.92
2022-12-06T15:02:39.967Z,366.55
2022-12-06T15:04:41.678Z,399.63
2022-12-06T15:06:55.715Z,505.70
2022-12-06T15:08:57.085Z,536.88
2022-12-06T15:11:02.445Z,523.05
2022-12-06T15:13:15.321Z,410.17
2022-12-06T15:15:36.009Z,323.98
2022-12-06T15:17:43.801Z,268.52
2022-12-06T15:19:48.259Z,271.90
2022-12-06T15:21:53.419Z,291.92
2022-12-06T15:23:56.103Z,278.42
2022-12-06T15:25:57.910Z,264.75
2022-12-06T15:27:59.352Z,246.05
2022-12-06T15:30:01.262Z,406.17
2022-12-06T15:32:03.086Z,276.42
2022-12-06T15:34:21.034Z,231.73
2022-12-06T15:36:30.892Z,216.32
2022-12-06T15:38:32.349Z,164.98
2022-12-06T15:40:33.884Z,140.55
2022-12-06T15:42:35.990Z,199.55
2022-12-06T15:44:37.531Z,231.52
2022-12-06T15:46:39.217Z,219.02
2022-12-06T15:48:43.306Z,212.27
2022-12-06T15:50:45.020Z,236.70
2022-12-06T15:52:46.598Z,228.55
2022-12-06T15:54:48.096Z,242.27
2022-12-06T15:56:50.031Z,239.43
2022-12-06T15:58:51.566Z,259.95
2022-12-06T16:00:53.052Z,204.32
2022-12-06T16:02:54.638Z,228.23
2022-12-06T16:04:56.174Z,284.25
2022-12-06T16:06:57.655Z,231.20
2022-12-06T16:08:59.105Z,252.30
2022-12-06T16:11:11.648Z,228.40
2022-12-06T16:13:23.478Z,240.18
2022-12-06T16:15:24.963Z,304.48
2022-12-06T16:17:26.413Z,333.83
2022-12-06T16:19:47.831Z,258.88
2022-12-06T16:21:54.459Z,233.45
2022-12-06T16:24:13.988Z,230.75
2022-12-06T16:26:17.239Z,175.63
2022-12-06T16:28:18.694Z,175.73
2022-12-06T16:30:34.485Z,163.23
2022-12-06T16:32:36.087Z,176.82
2022-12-06T16:34:37.544Z,135.57
2022-12-06T16:36:56.744Z,138.43
2022-12-06T16:39:04.710Z,159.45
2022-12-06T16:41:15.059Z,102.25
2022-12-06T16:43:16.890Z,97.22
2022-12-06T16:45:18.836Z,76.82
2022-12-06T16:51:45.005Z,40.08
2022-12-06T16:53:46.651Z,39.22
2022-12-06T16:55:48.118Z,41.60
2022-12-06T16:57:50.298Z,41.60
2022-12-06T16:59:51.759Z,37.97
2022-12-06T17:01:54.988Z,48.53
2022-12-06T17:03:58.677Z,40.60
2022-12-06T17:06:00.233Z,38.38
2022-12-06T17:08:01.864Z,63.78
2022-12-06T17:10:03.967Z,365.55
2022-12-06T17:12:12.872Z,110.47
2022-12-06T17:14:15.633Z,103.03
2022-12-06T17:16:17.244Z,122.10
2022-12-06T17:18:18.883Z,72.32
2022-12-06T17:20:20.593Z,93.95
2022-12-06T17:22:22.776Z,66.32
2022-12-06T17:24:26.390Z,96.43
2022-12-06T17:26:29.244Z,151.88
2022-12-06T17:28:30.754Z,216.65
2022-12-06T17:30:33.696Z,66.90
2022-12-06T17:32:35.351Z,126.85
2022-12-06T17:34:37.610Z,148.70
2022-12-06T17:36:39.477Z,524.47
2022-12-06T17:38:40.984Z,126.30
2022-12-06T17:40:42.471Z,112.88
2022-12-06T17:43:02.237Z,225.10
2022-12-06T17:45:04.716Z,163.20
2022-12-06T17:47:06.868Z,167.98
2022-12-06T17:49:10.769Z,214.60
2022-12-06T17:51:12.447Z,109.07
2022-12-06T17:53:13.913Z,120.28
2022-12-06T17:55:15.384Z,97.60
2022-12-06T17:57:18.512Z,95.55
2022-12-06T17:59:26.122Z,85.28
2022-12-06T18:01:51.246Z,99.43
2022-12-06T18:04:01.146Z,117.10
2022-12-06T18:06:07.522Z,63.50
2022-12-06T18:08:11.733Z,58.80
2022-12-06T18:10:13.202Z,48.10
2022-12-06T18:12:16.270Z,71.15
2022-12-06T18:14:18.040Z,54.75
2022-12-06T18:16:28.007Z,83.07
2022-12-06T18:18:29.955Z,164.88
2022-12-06T18:20:31.394Z,146.40
2022-12-06T18:22:32.965Z,144.18
2022-12-06T18:24:36.121Z,128.52
2022-12-06T18:26:37.887Z,119.00
2022-12-06T18:28:44.133Z,83.65
2022-12-06T18:30:45.539Z,116.28
2022-12-06T18:32:47.000Z,112.47
2022-12-06T18:34:48.645Z,97.53
2022-12-06T18:36:51.223Z,81.57
2022-12-06T18:39:01.041Z,105.80
2022-12-06T18:41:06.247Z,92.70
2022-12-06T18:43:07.690Z,132.93
2022-12-06T18:45:09.437Z,88.05
2022-12-06T18:47:10.977Z,112.43
2022-12-06T18:49:12.725Z,123.93
2022-12-06T18:51:17.624Z,119.75
2022-12-06T18:53:19.554Z,102.45
2022-12-06T18:55:21.046Z,80.43
2022-12-06T18:57:25.256Z,95.35
2022-12-06T18:59:29.390Z,116.32
2022-12-06T19:01:33.166Z,141.48
2022-12-06T19:03:34.950Z,92.72
2022-12-06T19:06:01.383Z,95.00
2022-12-06T19:07:57.898Z,82.05
2022-12-06T19:09:59.555Z,194.18
2022-12-06T19:12:02.851Z,106.95
2022-12-06T19:14:05.359Z,107.13
2022-12-06T19:16:07.227Z,123.30
2022-12-06T19:18:13.249Z,108.80
2022-12-06T19:20:14.746Z,115.30
2022-12-06T19:22:16.696Z,194.25
2022-12-06T19:24:22.117Z,145.27
2022-12-06T19:26:25.911Z,128.82
2022-12-06T19:28:28.316Z,118.03
2022-12-06T19:30:29.853Z,110.32
2022-12-06T19:32:31.333Z,99.82
2022-12-06T19:34:32.915Z,187.68
2022-12-06T19:36:34.388Z,347.65
2022-12-06T19:38:35.864Z,489.70
2022-12-06T19:40:41.157Z,618.72
2022-12-06T19:43:01.094Z,350.42
2022-12-06T19:45:02.867Z,268.15
2022-12-06T19:47:04.544Z,318.23
2022-12-06T19:49:06.639Z,447.40
2022-12-06T19:51:08.557Z,698.90
2022-12-06T19:53:09.996Z,208.30
2022-12-06T19:55:11.470Z,360.40
2022-12-06T19:57:13.288Z,194.32
2022-12-06T19:59:14.846Z,362.88
2022-12-06T20:01:19.223Z,127.75
2022-12-06T20:03:20.855Z,147.98
2022-12-06T20:05:22.291Z,135.38
2022-12-06T20:07:23.862Z,218.48
2022-12-06T20:09:28.279Z,116.85
2022-12-06T20:11:48.297Z,151.35
2022-12-06T20:13:49.767Z,159.82
2022-12-06T20:15:51.472Z,100.35
2022-12-06T20:17:53.006Z,97.68
2022-12-06T20:19:54.450Z,82.28
2022-12-06T20:21:56.040Z,111.85
2022-12-06T20:24:00.206Z,88.18
2022-12-06T20:26:01.720Z,88.28
2022-12-06T20:28:03.345Z,159.27
2022-12-06T20:30:06.357Z,111.65
2022-12-06T20:32:08.013Z,160.13
2022-12-06T20:34:15.112Z,134.90
2022-12-06T20:36:19.707Z,235.35
2022-12-06T20:38:21.232Z,220.13
2022-12-06T20:40:28.245Z,125.45
2022-12-06T20:42:33.439Z,181.48
2022-12-06T20:44:35.596Z,109.20
2022-12-06T20:46:37.258Z,94.97
2022-12-06T20:48:39.690Z,93.28
2022-12-06T20:50:41.263Z,96.35
2022-12-06T20:52:43.826Z,102.65
2022-12-06T20:54:45.635Z,118.30
2022-12-06T20:56:50.918Z,101.82
2022-12-06T20:58:55.362Z,85.38
2022-12-06T21:00:57.752Z,63.15
2022-12-06T21:02:59.297Z,93.88
2022-12-06T21:05:00.803Z,133.20
2022-12-06T21:07:02.710Z,116.82
2022-12-06T21:09:04.827Z,101.80
2022-12-06T21:11:22.760Z,83.57
2022-12-06T21:13:26.002Z,98.35
2022-12-06T21:15:27.550Z,130.40
2022-12-06T21:17:32.654Z,293.75
2022-12-06T21:19:34.288Z,172.98
2022-12-06T21:21:38.525Z,309.95
2022-12-06T21:23:40.795Z,145.73
2022-12-06T21:25:42.289Z,112.10
2022-12-06T21:27:43.833Z,162.82
2022-12-06T21:29:47.811Z,134.40
2022-12-06T21:31:49.262Z,137.05
2022-12-06T21:33:50.747Z,123.53
2022-12-06T21:35:53.319Z,129.85
2022-12-06T21:37:54.791Z,288.83
2022-12-06T21:39:56.316Z,113.80
2022-12-06T21:41:58.048Z,160.10
2022-12-06T21:44:00.037Z,273.75
2022-12-06T21:46:14.270Z,157.45
2022-12-06T21:48:15.798Z,99.30
2022-12-06T21:50:17.344Z,111.72
2022-12-06T21:52:18.929Z,116.93
2022-12-06T21:54:20.446Z,110.70
2022-12-06T21:56:25.309Z,110.90
2022-12-06T21:58:26.953Z,99.35
2022-12-06T22:00:28.527Z,171.23
2022-12-06T22:02:30.383Z,136.82
2022-12-06T22:04:32.206Z,133.48
2022-12-06T22:06:36.665Z,123.03
2022-12-06T22:08:42.794Z,102.43
2022-12-06T22:10:44.522Z,125.43
2022-12-06T22:12:47.642Z,128.35
2022-12-06T22:14:49.274Z,89.22
2022-12-06T22:16:51.054Z,104.35
2022-12-06T22:18:55.123Z,212.40
2022-12-06T22:20:58.926Z,362.67
2022-12-06T22:23:00.509Z,491.00
2022-12-06T22:25:02.207Z,406.27
2022-12-06T22:27:04.025Z,281.58
2022-12-06T22:29:05.442Z,126.05
2022-12-06T22:31:15.366Z,101.30
2022-12-06T22:33:17.461Z,94.13
2022-12-06T22:35:19.037Z,91.55
2022-12-06T22:37:24.140Z,41.83
2022-12-06T22:39:29.841Z,49.00
2022-12-06T22:41:31.827Z,94.25
2022-12-06T22:43:33.617Z,72.30
2022-12-06T22:45:35.183Z,89.93
2022-12-06T22:47:36.735Z,131.93
2022-12-06T22:49:38.206Z,95.53
2022-12-06T22:51:40.715Z,194.30
2022-12-06T22:53:45.087Z,117.20
2022-12-06T22:55:49.014Z,67.22
2022-12-06T22:57:50.682Z,59.20
2022-12-06T22:59:52.219Z,59.25
2022-12-06T23:01:53.817Z,86.93
2022-12-06T23:03:55.672Z,46.88
2022-12-06T23:06:00.649Z,61.40
2022-12-06T23:08:02.205Z,48.10
2022-12-06T23:10:04.280Z,60.35
2022-12-06T23:12:06.468Z,42.45
2022-12-06T23:14:12.084Z,45.22
2022-12-06T23:16:19.869Z,45.20
2022-12-06T23:18:21.430Z,30.88
2022-12-06T23:20:22.997Z,45.92
2022-12-06T23:22:24.684Z,38.05
2022-12-06T23:24:26.165Z,29.92
2022-12-06T23:26:31.241Z,42.00
2022-12-06T23:28:34.184Z,30.02
2022-12-06T23:30:35.732Z,49.15
2022-12-06T23:32:37.206Z,37.75
2022-12-06T23:34:38.728Z,44.72
2022-12-06T23:36:40.798Z,31.38
2022-12-06T23:38:42.694Z,34.67
2022-12-06T23:40:44.162Z,32.88
2022-12-06T23:42:45.694Z,38.33
2022-12-06T23:44:47.349Z,45.13
2022-12-06T23:46:48.840Z,40.85
2022-12-06T23:48:51.334Z,30.35
2022-12-06T23:51:03.772Z,29.23
2022-12-06T23:53:06.353Z,29.00
2022-12-06T23:55:08.366Z,36.95
2022-12-06T23:57:11.502Z,38.47
2022-12-06T23:59:14.899Z,24.30
